HAZ9841 RKSS-ZSPD
Flight info
| Callsign | HAZ9841 |
|---|---|
| Flight time | 1h 36m |
| Altitude | 29000 |
| Route | BULTI Y711 PONIK A593 LAMEN/K0841F280 A593 AKARA/K0841S0840 A593 PUD |
| Aircraft | A339/H-SADE1E2E3GHIJ1J3J5M1P2RWXY/LB2D1 |
Departure
| Time | 2026-05-05 12:36 |
|---|---|
| Airport | Gimpo International Airport (RKSS) |
Arrival
| Time | 2026-05-05 14:12 |
|---|---|
| Airport | Shanghai Pudong International Airport (ZSPD) |
| Time | Latitude | Longitude | Altitude | Speed | Heading |
|---|---|---|---|---|---|
| 2026-05-05 11:34 | 37.55891 | 126.80149 | 77 ft | 0 kts | 44° |
| 2026-05-05 12:16 | 37.55888 | 126.80145 | 77 ft | 2 kts | 45° |
| 2026-05-05 12:16 | 37.55877 | 126.80131 | 77 ft | 2 kts | 44° |
| 2026-05-05 12:17 | 37.55866 | 126.80118 | 77 ft | 2 kts | 45° |
| 2026-05-05 12:17 | 37.55855 | 126.80105 | 78 ft | 2 kts | 45° |
| 2026-05-05 12:17 | 37.55844 | 126.80091 | 78 ft | 2 kts | 45° |
| 2026-05-05 12:17 | 37.55836 | 126.80080 | 78 ft | 0 kts | 45° |
| 2026-05-05 12:18 | 37.55826 | 126.80070 | 78 ft | 2 kts | 17° |
| 2026-05-05 12:18 | 37.55811 | 126.80070 | 78 ft | 2 kts | 339° |
| 2026-05-05 12:18 | 37.55803 | 126.80077 | 78 ft | 0 kts | 315° |
| 2026-05-05 12:18 | 37.55799 | 126.80081 | 78 ft | 0 kts | 314° |
| 2026-05-05 12:22 | 37.55804 | 126.80074 | 78 ft | 2 kts | 314° |
| 2026-05-05 12:23 | 37.55821 | 126.80054 | 79 ft | 4 kts | 316° |
| 2026-05-05 12:23 | 37.55849 | 126.80020 | 79 ft | 6 kts | 316° |
| 2026-05-05 12:23 | 37.55883 | 126.79968 | 80 ft | 8 kts | 303° |
| 2026-05-05 12:23 | 37.55906 | 126.79897 | 81 ft | 9 kts | 282° |
| 2026-05-05 12:24 | 37.55919 | 126.79803 | 81 ft | 12 kts | 279° |
| 2026-05-05 12:24 | 37.55933 | 126.79680 | 80 ft | 15 kts | 277° |
| 2026-05-05 12:24 | 37.55938 | 126.79632 | 80 ft | 0 kts | 278° |
| 2026-05-05 12:26 | 37.55940 | 126.79612 | 80 ft | 7 kts | 278° |
| 2026-05-05 12:26 | 37.55969 | 126.79516 | 79 ft | 16 kts | 305° |
| 2026-05-05 12:26 | 37.56071 | 126.79378 | 77 ft | 25 kts | 315° |
| 2026-05-05 12:27 | 37.56194 | 126.79223 | 74 ft | 25 kts | 315° |
| 2026-05-05 12:27 | 37.56314 | 126.79072 | 70 ft | 20 kts | 315° |
| 2026-05-05 12:27 | 37.56418 | 126.78942 | 68 ft | 21 kts | 315° |
| 2026-05-05 12:27 | 37.56530 | 126.78803 | 66 ft | 23 kts | 315° |
| 2026-05-05 12:28 | 37.56650 | 126.78652 | 64 ft | 24 kts | 315° |
| 2026-05-05 12:28 | 37.56777 | 126.78494 | 61 ft | 25 kts | 315° |
| 2026-05-05 12:28 | 37.56906 | 126.78332 | 59 ft | 26 kts | 315° |
| 2026-05-05 12:28 | 37.57036 | 126.78167 | 59 ft | 26 kts | 314° |
| 2026-05-05 12:29 | 37.57115 | 126.78068 | 58 ft | 6 kts | 316° |
| 2026-05-05 12:29 | 37.57124 | 126.78057 | 58 ft | 0 kts | 316° |
| 2026-05-05 12:30 | 37.57135 | 126.78041 | 57 ft | 5 kts | 309° |
| 2026-05-05 12:30 | 37.57144 | 126.77981 | 57 ft | 8 kts | 256° |
| 2026-05-05 12:30 | 37.57137 | 126.77959 | 57 ft | 0 kts | 240° |
| 2026-05-05 12:34 | 37.57126 | 126.77937 | 58 ft | 4 kts | 234° |
| 2026-05-05 12:35 | 37.57093 | 126.77894 | 58 ft | 8 kts | 214° |
| 2026-05-05 12:35 | 37.57031 | 126.77895 | 59 ft | 10 kts | 155° |
| 2026-05-05 12:35 | 37.56970 | 126.77956 | 60 ft | 12 kts | 136° |
| 2026-05-05 12:35 | 37.56806 | 126.78159 | 60 ft | 64 kts | 135° |
| 2026-05-05 12:36 | 37.56339 | 126.78747 | 68 ft | 122 kts | 135° |
| 2026-05-05 12:36 | 37.55625 | 126.79641 | 92 ft | 166 kts | 136° |
| 2026-05-05 12:36 | 37.54826 | 126.80614 | 826 ft | 150 kts | 139° |
| 2026-05-05 12:36 | 37.54104 | 126.81459 | 1390 ft | 146 kts | 139° |
| 2026-05-05 12:37 | 37.53376 | 126.82390 | 1809 ft | 153 kts | 138° |
| 2026-05-05 12:37 | 37.52603 | 126.83390 | 2097 ft | 165 kts | 139° |
| 2026-05-05 12:37 | 37.51759 | 126.84462 | 2383 ft | 180 kts | 139° |
| 2026-05-05 12:37 | 37.50846 | 126.85613 | 2679 ft | 195 kts | 139° |
| 2026-05-05 12:38 | 37.49731 | 126.86685 | 2983 ft | 208 kts | 156° |
| 2026-05-05 12:38 | 37.48333 | 126.87373 | 3326 ft | 223 kts | 165° |
| 2026-05-05 12:38 | 37.46806 | 126.87975 | 3685 ft | 240 kts | 166° |
| 2026-05-05 12:38 | 37.45154 | 126.88613 | 4084 ft | 257 kts | 165° |
| 2026-05-05 12:39 | 37.43413 | 126.89296 | 4729 ft | 263 kts | 165° |
| 2026-05-05 12:39 | 37.41653 | 126.89995 | 5417 ft | 267 kts | 165° |
| 2026-05-05 12:39 | 37.39870 | 126.90705 | 5858 ft | 271 kts | 165° |
| 2026-05-05 12:39 | 37.38068 | 126.91454 | 6246 ft | 278 kts | 161° |
| 2026-05-05 12:40 | 37.36326 | 126.92512 | 7021 ft | 281 kts | 151° |
| 2026-05-05 12:40 | 37.34668 | 126.93859 | 7773 ft | 283 kts | 148° |
| 2026-05-05 12:40 | 37.33052 | 126.95257 | 8462 ft | 286 kts | 147° |
| 2026-05-05 12:40 | 37.31416 | 126.96685 | 9140 ft | 290 kts | 147° |
| 2026-05-05 12:41 | 37.29759 | 126.98123 | 9825 ft | 292 kts | 147° |
| 2026-05-05 12:41 | 37.28072 | 126.99577 | 10463 ft | 297 kts | 147° |
| 2026-05-05 12:41 | 37.26327 | 127.01076 | 10805 ft | 313 kts | 147° |
| 2026-05-05 12:41 | 37.24358 | 127.02380 | 11073 ft | 328 kts | 166° |
| 2026-05-05 12:42 | 37.22060 | 127.02472 | 11351 ft | 341 kts | 192° |
| 2026-05-05 12:42 | 37.19740 | 127.01537 | 11726 ft | 354 kts | 201° |
| 2026-05-05 12:42 | 37.17423 | 127.00402 | 12315 ft | 360 kts | 201° |
| 2026-05-05 12:42 | 37.15058 | 126.99291 | 12962 ft | 364 kts | 200° |
| 2026-05-05 12:43 | 37.12661 | 126.98235 | 13578 ft | 369 kts | 198° |
| 2026-05-05 12:43 | 37.10215 | 126.97213 | 14209 ft | 373 kts | 197° |
| 2026-05-05 12:43 | 37.07742 | 126.96218 | 14855 ft | 377 kts | 197° |
| 2026-05-05 12:43 | 37.05221 | 126.95222 | 15495 ft | 381 kts | 197° |
| 2026-05-05 12:44 | 37.02689 | 126.94233 | 15927 ft | 384 kts | 197° |
| 2026-05-05 12:44 | 37.00111 | 126.93232 | 16076 ft | 385 kts | 197° |
| 2026-05-05 12:44 | 36.97537 | 126.92235 | 16078 ft | 385 kts | 197° |
| 2026-05-05 12:44 | 36.94989 | 126.91250 | 16079 ft | 385 kts | 196° |
| 2026-05-05 12:45 | 36.92409 | 126.90253 | 16080 ft | 385 kts | 197° |
| 2026-05-05 12:45 | 36.89868 | 126.89273 | 16081 ft | 385 kts | 197° |
| 2026-05-05 12:45 | 36.87298 | 126.88283 | 16081 ft | 385 kts | 197° |
| 2026-05-05 12:45 | 36.84725 | 126.87292 | 16085 ft | 385 kts | 197° |
| 2026-05-05 12:46 | 36.82145 | 126.86296 | 16127 ft | 385 kts | 197° |
| 2026-05-05 12:46 | 36.79599 | 126.85316 | 16131 ft | 386 kts | 197° |
| 2026-05-05 12:46 | 36.76997 | 126.84315 | 16353 ft | 393 kts | 197° |
| 2026-05-05 12:46 | 36.74389 | 126.83360 | 17070 ft | 393 kts | 193° |
| 2026-05-05 12:47 | 36.71703 | 126.82764 | 17758 ft | 394 kts | 186° |
| 2026-05-05 12:47 | 36.68939 | 126.82596 | 18355 ft | 397 kts | 179° |
| 2026-05-05 12:47 | 36.66161 | 126.82684 | 18944 ft | 401 kts | 177° |
| 2026-05-05 12:47 | 36.63341 | 126.82816 | 19540 ft | 404 kts | 177° |
| 2026-05-05 12:48 | 36.60546 | 126.82946 | 20095 ft | 408 kts | 177° |
| 2026-05-05 12:48 | 36.57675 | 126.83068 | 20647 ft | 412 kts | 178° |
| 2026-05-05 12:48 | 36.54802 | 126.83183 | 21192 ft | 415 kts | 178° |
| 2026-05-05 12:48 | 36.51908 | 126.83292 | 21724 ft | 418 kts | 178° |
| 2026-05-05 12:49 | 36.48974 | 126.83401 | 22245 ft | 421 kts | 178° |
| 2026-05-05 12:49 | 36.46046 | 126.83509 | 22753 ft | 424 kts | 178° |
| 2026-05-05 12:49 | 36.43075 | 126.83621 | 23255 ft | 427 kts | 178° |
| 2026-05-05 12:49 | 36.40094 | 126.83704 | 23722 ft | 430 kts | 180° |
| 2026-05-05 12:50 | 36.37070 | 126.83597 | 24165 ft | 434 kts | 184° |
| 2026-05-05 12:50 | 36.34074 | 126.83298 | 24618 ft | 436 kts | 185° |
| 2026-05-05 12:50 | 36.31011 | 126.82964 | 25048 ft | 439 kts | 185° |
| 2026-05-05 12:50 | 36.27987 | 126.82633 | 25483 ft | 442 kts | 186° |
| 2026-05-05 12:51 | 36.24892 | 126.82295 | 25937 ft | 444 kts | 186° |
| 2026-05-05 12:51 | 36.21831 | 126.81962 | 26345 ft | 446 kts | 186° |
| 2026-05-05 12:51 | 36.18695 | 126.81622 | 26754 ft | 449 kts | 186° |
| 2026-05-05 12:51 | 36.15612 | 126.81279 | 27159 ft | 450 kts | 188° |
| 2026-05-05 12:52 | 36.12534 | 126.80436 | 27536 ft | 450 kts | 199° |
| 2026-05-05 12:52 | 36.09612 | 126.79121 | 27943 ft | 451 kts | 202° |
| 2026-05-05 12:52 | 36.06665 | 126.77689 | 28325 ft | 453 kts | 203° |
| 2026-05-05 12:52 | 36.03741 | 126.76283 | 28684 ft | 455 kts | 202° |
| 2026-05-05 12:53 | 36.00748 | 126.74880 | 29033 ft | 457 kts | 202° |
| 2026-05-05 12:53 | 35.97794 | 126.73527 | 29377 ft | 459 kts | 202° |
| 2026-05-05 12:53 | 35.94788 | 126.72171 | 29705 ft | 461 kts | 202° |
| 2026-05-05 12:53 | 35.91732 | 126.70808 | 30026 ft | 463 kts | 202° |
| 2026-05-05 12:54 | 35.85636 | 126.68111 | 30736 ft | 464 kts | 202° |
| 2026-05-05 12:54 | 35.82614 | 126.66781 | 31115 ft | 464 kts | 202° |
| 2026-05-05 12:54 | 35.79544 | 126.65432 | 31424 ft | 465 kts | 202° |
| 2026-05-05 12:55 | 35.76528 | 126.64109 | 31738 ft | 465 kts | 202° |
| 2026-05-05 12:55 | 35.73451 | 126.62761 | 32028 ft | 466 kts | 202° |
| 2026-05-05 12:55 | 35.70361 | 126.61407 | 32093 ft | 467 kts | 202° |
| 2026-05-05 12:56 | 35.64253 | 126.58737 | 32092 ft | 466 kts | 202° |
| 2026-05-05 12:56 | 35.58126 | 126.56064 | 32095 ft | 466 kts | 202° |
| 2026-05-05 12:57 | 35.52022 | 126.53404 | 32093 ft | 466 kts | 202° |
| 2026-05-05 12:57 | 35.45928 | 126.50754 | 32095 ft | 465 kts | 202° |
| 2026-05-05 12:58 | 35.39851 | 126.48115 | 32100 ft | 463 kts | 202° |
| 2026-05-05 12:58 | 35.33774 | 126.45480 | 32106 ft | 464 kts | 202° |
| 2026-05-05 12:59 | 35.27645 | 126.42828 | 32101 ft | 463 kts | 202° |
| 2026-05-05 12:59 | 35.21572 | 126.40202 | 32095 ft | 464 kts | 202° |
| 2026-05-05 13:00 | 35.12445 | 126.36266 | 32098 ft | 461 kts | 202° |
| 2026-05-05 13:01 | 35.00389 | 126.31082 | 32112 ft | 459 kts | 202° |
| 2026-05-05 13:01 | 34.94365 | 126.28497 | 32106 ft | 460 kts | 202° |
| 2026-05-05 13:02 | 34.88332 | 126.25912 | 32097 ft | 459 kts | 202° |
| 2026-05-05 13:02 | 34.82293 | 126.23329 | 32097 ft | 459 kts | 202° |
| 2026-05-05 13:03 | 34.76263 | 126.20754 | 32103 ft | 457 kts | 202° |
| 2026-05-05 13:03 | 34.70262 | 126.18195 | 32104 ft | 457 kts | 202° |
| 2026-05-05 13:04 | 34.64234 | 126.15628 | 32097 ft | 457 kts | 202° |
| 2026-05-05 13:04 | 34.58251 | 126.13084 | 32103 ft | 456 kts | 202° |
| 2026-05-05 13:05 | 34.52257 | 126.10541 | 32099 ft | 456 kts | 202° |
| 2026-05-05 13:05 | 34.46229 | 126.07987 | 32101 ft | 455 kts | 202° |
| 2026-05-05 13:06 | 34.40248 | 126.05456 | 32091 ft | 455 kts | 202° |
| 2026-05-05 13:06 | 34.34287 | 126.02937 | 32096 ft | 454 kts | 202° |
| 2026-05-05 13:07 | 34.28310 | 126.00415 | 32092 ft | 453 kts | 202° |
| 2026-05-05 13:07 | 34.22393 | 125.97922 | 32095 ft | 452 kts | 202° |
| 2026-05-05 13:08 | 34.16435 | 125.95415 | 32094 ft | 453 kts | 202° |
| 2026-05-05 13:08 | 34.10501 | 125.92921 | 32096 ft | 452 kts | 202° |
| 2026-05-05 13:09 | 34.04568 | 125.90434 | 32088 ft | 452 kts | 202° |
| 2026-05-05 13:09 | 33.98633 | 125.87950 | 32090 ft | 451 kts | 202° |
| 2026-05-05 13:10 | 33.92701 | 125.85471 | 32093 ft | 449 kts | 202° |
| 2026-05-05 13:10 | 33.86783 | 125.82999 | 32092 ft | 449 kts | 202° |
| 2026-05-05 13:11 | 33.80882 | 125.80541 | 32086 ft | 448 kts | 203° |
| 2026-05-05 13:11 | 33.74974 | 125.78081 | 32103 ft | 447 kts | 203° |
| 2026-05-05 13:12 | 33.69085 | 125.75633 | 32102 ft | 447 kts | 203° |
| 2026-05-05 13:12 | 33.63222 | 125.73199 | 32102 ft | 445 kts | 203° |
| 2026-05-05 13:13 | 33.57371 | 125.70772 | 32104 ft | 445 kts | 203° |
| 2026-05-05 13:13 | 33.51528 | 125.68353 | 32101 ft | 445 kts | 203° |
| 2026-05-05 13:14 | 33.45684 | 125.65940 | 32102 ft | 444 kts | 203° |
| 2026-05-05 13:14 | 33.39826 | 125.63522 | 32105 ft | 444 kts | 203° |
| 2026-05-05 13:15 | 33.33979 | 125.61111 | 32103 ft | 443 kts | 203° |
| 2026-05-05 13:15 | 33.28160 | 125.58717 | 32106 ft | 442 kts | 203° |
| 2026-05-05 13:16 | 33.22371 | 125.56338 | 32105 ft | 441 kts | 203° |
| 2026-05-05 13:16 | 33.16568 | 125.53957 | 32110 ft | 440 kts | 203° |
| 2026-05-05 13:17 | 33.10742 | 125.51569 | 32119 ft | 440 kts | 203° |
| 2026-05-05 13:17 | 33.04961 | 125.49202 | 32103 ft | 440 kts | 204° |
| 2026-05-05 13:18 | 32.99144 | 125.46825 | 32107 ft | 438 kts | 204° |
| 2026-05-05 13:18 | 32.93372 | 125.44471 | 32114 ft | 438 kts | 204° |
| 2026-05-05 13:19 | 32.87602 | 125.42119 | 32114 ft | 437 kts | 204° |
| 2026-05-05 13:19 | 32.81842 | 125.39775 | 32110 ft | 437 kts | 204° |
| 2026-05-05 13:20 | 32.76089 | 125.37437 | 32108 ft | 436 kts | 204° |
| 2026-05-05 13:20 | 32.70338 | 125.35104 | 32110 ft | 435 kts | 204° |
| 2026-05-05 13:21 | 32.64622 | 125.32787 | 32109 ft | 435 kts | 203° |
| 2026-05-05 13:21 | 32.58889 | 125.30467 | 32104 ft | 434 kts | 204° |
| 2026-05-05 13:22 | 32.53192 | 125.28163 | 32108 ft | 434 kts | 203° |
| 2026-05-05 13:22 | 32.47455 | 125.25848 | 32104 ft | 433 kts | 203° |
| 2026-05-05 13:23 | 32.41753 | 125.23551 | 32105 ft | 432 kts | 204° |
| 2026-05-05 13:23 | 32.36024 | 125.21242 | 32098 ft | 432 kts | 204° |
| 2026-05-05 13:24 | 32.30347 | 125.18960 | 32100 ft | 431 kts | 203° |
| 2026-05-05 13:24 | 32.24656 | 125.16676 | 32099 ft | 431 kts | 204° |
| 2026-05-05 13:25 | 32.18993 | 125.14406 | 32099 ft | 430 kts | 204° |
| 2026-05-05 13:25 | 32.13305 | 125.12128 | 32092 ft | 429 kts | 204° |
| 2026-05-05 13:26 | 32.07660 | 125.09871 | 32100 ft | 428 kts | 204° |
| 2026-05-05 13:26 | 32.02027 | 125.07621 | 31712 ft | 429 kts | 204° |
| 2026-05-05 13:27 | 31.99185 | 125.06487 | 31367 ft | 429 kts | 204° |
| 2026-05-05 13:27 | 31.96352 | 125.05357 | 31022 ft | 427 kts | 204° |
| 2026-05-05 13:27 | 31.93558 | 125.04242 | 30681 ft | 425 kts | 204° |
| 2026-05-05 13:27 | 31.90764 | 125.03043 | 30329 ft | 420 kts | 208° |
| 2026-05-05 13:28 | 31.88226 | 125.01375 | 29980 ft | 413 kts | 217° |
| 2026-05-05 13:28 | 31.86009 | 124.99313 | 29636 ft | 408 kts | 225° |
| 2026-05-05 13:28 | 31.84092 | 124.96886 | 29274 ft | 405 kts | 233° |
| 2026-05-05 13:28 | 31.82521 | 124.94172 | 28903 ft | 403 kts | 240° |
| 2026-05-05 13:29 | 31.81312 | 124.91202 | 28536 ft | 402 kts | 248° |
| 2026-05-05 13:29 | 31.80481 | 124.88058 | 28179 ft | 403 kts | 253° |
| 2026-05-05 13:29 | 31.79768 | 124.84902 | 27809 ft | 402 kts | 254° |
| 2026-05-05 13:29 | 31.79071 | 124.81758 | 27446 ft | 401 kts | 254° |
| 2026-05-05 13:30 | 31.78369 | 124.78570 | 27082 ft | 400 kts | 255° |
| 2026-05-05 13:30 | 31.77675 | 124.75407 | 26719 ft | 400 kts | 255° |
| 2026-05-05 13:30 | 31.76981 | 124.72233 | 26345 ft | 399 kts | 255° |
| 2026-05-05 13:30 | 31.76297 | 124.69102 | 26109 ft | 398 kts | 255° |
| 2026-05-05 13:31 | 31.75608 | 124.65948 | 26098 ft | 399 kts | 255° |
| 2026-05-05 13:31 | 31.74921 | 124.62802 | 26097 ft | 400 kts | 255° |
| 2026-05-05 13:31 | 31.74227 | 124.59637 | 26099 ft | 400 kts | 255° |
| 2026-05-05 13:31 | 31.73534 | 124.56476 | 26098 ft | 401 kts | 255° |
| 2026-05-05 13:32 | 31.72843 | 124.53323 | 26096 ft | 402 kts | 255° |
| 2026-05-05 13:32 | 31.72145 | 124.50148 | 26093 ft | 401 kts | 255° |
| 2026-05-05 13:32 | 31.71447 | 124.46971 | 26093 ft | 401 kts | 255° |
| 2026-05-05 13:32 | 31.70757 | 124.43839 | 26095 ft | 401 kts | 255° |
| 2026-05-05 13:33 | 31.70051 | 124.40642 | 26098 ft | 401 kts | 255° |
| 2026-05-05 13:33 | 31.69355 | 124.37494 | 26098 ft | 402 kts | 255° |
| 2026-05-05 13:33 | 31.68651 | 124.34313 | 25946 ft | 402 kts | 255° |
| 2026-05-05 13:33 | 31.67948 | 124.31148 | 25731 ft | 401 kts | 255° |
| 2026-05-05 13:34 | 31.67247 | 124.27987 | 25508 ft | 401 kts | 255° |
| 2026-05-05 13:34 | 31.66545 | 124.24822 | 25287 ft | 400 kts | 255° |
| 2026-05-05 13:34 | 31.65840 | 124.21653 | 25070 ft | 400 kts | 255° |
| 2026-05-05 13:34 | 31.65145 | 124.18533 | 24861 ft | 400 kts | 255° |
| 2026-05-05 13:35 | 31.64435 | 124.15346 | 24630 ft | 399 kts | 255° |
| 2026-05-05 13:35 | 31.63733 | 124.12202 | 24416 ft | 399 kts | 255° |
| 2026-05-05 13:35 | 31.63034 | 124.09076 | 24204 ft | 399 kts | 256° |
| 2026-05-05 13:35 | 31.62329 | 124.05928 | 23984 ft | 398 kts | 256° |
| 2026-05-05 13:36 | 31.61635 | 124.02828 | 23775 ft | 398 kts | 256° |
| 2026-05-05 13:36 | 31.60928 | 123.99672 | 23560 ft | 398 kts | 256° |
| 2026-05-05 13:36 | 31.60243 | 123.96555 | 23343 ft | 397 kts | 256° |
| 2026-05-05 13:36 | 31.59560 | 123.93413 | 23119 ft | 396 kts | 256° |
| 2026-05-05 13:37 | 31.58885 | 123.90306 | 22896 ft | 395 kts | 256° |
| 2026-05-05 13:37 | 31.58213 | 123.87225 | 22675 ft | 394 kts | 256° |
| 2026-05-05 13:37 | 31.57529 | 123.84099 | 22450 ft | 393 kts | 256° |
| 2026-05-05 13:37 | 31.56854 | 123.81017 | 22231 ft | 393 kts | 256° |
| 2026-05-05 13:38 | 31.56171 | 123.77911 | 22005 ft | 392 kts | 256° |
| 2026-05-05 13:38 | 31.55499 | 123.74858 | 21782 ft | 390 kts | 257° |
| 2026-05-05 13:38 | 31.54818 | 123.71766 | 21557 ft | 389 kts | 257° |
| 2026-05-05 13:38 | 31.54134 | 123.68663 | 21333 ft | 388 kts | 257° |
| 2026-05-05 13:39 | 31.53460 | 123.65608 | 21105 ft | 387 kts | 257° |
| 2026-05-05 13:39 | 31.52794 | 123.62594 | 20889 ft | 385 kts | 257° |
| 2026-05-05 13:39 | 31.52121 | 123.59549 | 20664 ft | 385 kts | 257° |
| 2026-05-05 13:39 | 31.51449 | 123.56520 | 20436 ft | 384 kts | 257° |
| 2026-05-05 13:40 | 31.50787 | 123.53535 | 20212 ft | 383 kts | 257° |
| 2026-05-05 13:40 | 31.50115 | 123.50493 | 19985 ft | 382 kts | 257° |
| 2026-05-05 13:40 | 31.49526 | 123.47468 | 19768 ft | 380 kts | 259° |
| 2026-05-05 13:40 | 31.48956 | 123.44461 | 19546 ft | 379 kts | 259° |
| 2026-05-05 13:41 | 31.48387 | 123.41455 | 19322 ft | 378 kts | 259° |
| 2026-05-05 13:41 | 31.47818 | 123.38453 | 19096 ft | 377 kts | 259° |
| 2026-05-05 13:41 | 31.47251 | 123.35470 | 18878 ft | 376 kts | 259° |
| 2026-05-05 13:41 | 31.46687 | 123.32505 | 18653 ft | 374 kts | 258° |
| 2026-05-05 13:42 | 31.46121 | 123.29532 | 18431 ft | 373 kts | 259° |
| 2026-05-05 13:42 | 31.45555 | 123.26567 | 18209 ft | 372 kts | 259° |
| 2026-05-05 13:42 | 31.44990 | 123.23606 | 17982 ft | 371 kts | 259° |
| 2026-05-05 13:42 | 31.44432 | 123.20686 | 17762 ft | 370 kts | 259° |
| 2026-05-05 13:43 | 31.43874 | 123.17764 | 17544 ft | 370 kts | 258° |
| 2026-05-05 13:43 | 31.43312 | 123.14827 | 17327 ft | 370 kts | 258° |
| 2026-05-05 13:43 | 31.42748 | 123.11887 | 17101 ft | 369 kts | 258° |
| 2026-05-05 13:43 | 31.42186 | 123.08967 | 16884 ft | 369 kts | 258° |
| 2026-05-05 13:44 | 31.41622 | 123.06041 | 16663 ft | 368 kts | 258° |
| 2026-05-05 13:44 | 31.41063 | 123.03142 | 16447 ft | 367 kts | 258° |
| 2026-05-05 13:44 | 31.40498 | 123.00216 | 16226 ft | 367 kts | 258° |
| 2026-05-05 13:44 | 31.39944 | 122.97350 | 16003 ft | 366 kts | 258° |
| 2026-05-05 13:45 | 31.39375 | 122.94418 | 15794 ft | 361 kts | 258° |
| 2026-05-05 13:45 | 31.38832 | 122.91618 | 15751 ft | 348 kts | 258° |
| 2026-05-05 13:45 | 31.38303 | 122.88898 | 15755 ft | 339 kts | 258° |
| 2026-05-05 13:45 | 31.37778 | 122.86192 | 15752 ft | 341 kts | 258° |
| 2026-05-05 13:46 | 31.37250 | 122.83472 | 15750 ft | 341 kts | 258° |
| 2026-05-05 13:46 | 31.36726 | 122.80782 | 15746 ft | 341 kts | 258° |
| 2026-05-05 13:46 | 31.36110 | 122.78130 | 15743 ft | 342 kts | 252° |
| 2026-05-05 13:46 | 31.35168 | 122.75547 | 15744 ft | 343 kts | 245° |
| 2026-05-05 13:47 | 31.34040 | 122.73076 | 15745 ft | 343 kts | 243° |
| 2026-05-05 13:47 | 31.32895 | 122.70647 | 15753 ft | 344 kts | 243° |
| 2026-05-05 13:47 | 31.31740 | 122.68209 | 15747 ft | 344 kts | 243° |
| 2026-05-05 13:47 | 31.30569 | 122.65730 | 15743 ft | 344 kts | 243° |
| 2026-05-05 13:48 | 31.29420 | 122.63296 | 15748 ft | 344 kts | 243° |
| 2026-05-05 13:48 | 31.28268 | 122.60851 | 15745 ft | 344 kts | 243° |
| 2026-05-05 13:48 | 31.27106 | 122.58383 | 15568 ft | 344 kts | 243° |
| 2026-05-05 13:48 | 31.25954 | 122.55939 | 15337 ft | 342 kts | 243° |
| 2026-05-05 13:49 | 31.24818 | 122.53528 | 15116 ft | 341 kts | 243° |
| 2026-05-05 13:49 | 31.23670 | 122.51090 | 14897 ft | 340 kts | 243° |
| 2026-05-05 13:49 | 31.22529 | 122.48670 | 14677 ft | 340 kts | 243° |
| 2026-05-05 13:49 | 31.21389 | 122.46254 | 14458 ft | 339 kts | 243° |
| 2026-05-05 13:50 | 31.20240 | 122.43823 | 14236 ft | 338 kts | 243° |
| 2026-05-05 13:50 | 31.19104 | 122.41419 | 14017 ft | 338 kts | 243° |
| 2026-05-05 13:50 | 31.17964 | 122.39008 | 13790 ft | 338 kts | 243° |
| 2026-05-05 13:50 | 31.16839 | 122.36632 | 13575 ft | 337 kts | 243° |
| 2026-05-05 13:51 | 31.15707 | 122.34241 | 13351 ft | 336 kts | 242° |
| 2026-05-05 13:51 | 31.14578 | 122.31858 | 13137 ft | 335 kts | 242° |
| 2026-05-05 13:51 | 31.13446 | 122.29469 | 12920 ft | 334 kts | 242° |
| 2026-05-05 13:51 | 31.12331 | 122.27118 | 12706 ft | 333 kts | 242° |
| 2026-05-05 13:52 | 31.11204 | 122.24744 | 12485 ft | 332 kts | 242° |
| 2026-05-05 13:52 | 31.10080 | 122.22375 | 12263 ft | 331 kts | 242° |
| 2026-05-05 13:52 | 31.09201 | 122.19936 | 12019 ft | 329 kts | 261° |
| 2026-05-05 13:52 | 31.09338 | 122.17300 | 11782 ft | 327 kts | 289° |
| 2026-05-05 13:53 | 31.10523 | 122.15086 | 11538 ft | 327 kts | 316° |
| 2026-05-05 13:53 | 31.12466 | 122.13751 | 11223 ft | 325 kts | 339° |
| 2026-05-05 13:53 | 31.14661 | 122.13194 | 10893 ft | 323 kts | 360° |
| 2026-05-05 13:53 | 31.16822 | 122.13797 | 10525 ft | 319 kts | 29° |
| 2026-05-05 13:54 | 31.18525 | 122.15422 | 10228 ft | 310 kts | 46° |
| 2026-05-05 13:54 | 31.19977 | 122.17230 | 9923 ft | 303 kts | 46° |
| 2026-05-05 13:54 | 31.21435 | 122.18977 | 9604 ft | 296 kts | 44° |
| 2026-05-05 13:54 | 31.22917 | 122.20625 | 9279 ft | 290 kts | 40° |
| 2026-05-05 13:55 | 31.24567 | 122.21948 | 8956 ft | 285 kts | 27° |
| 2026-05-05 13:55 | 31.26338 | 122.22965 | 8634 ft | 280 kts | 25° |
| 2026-05-05 13:55 | 31.28082 | 122.23904 | 8322 ft | 275 kts | 25° |
| 2026-05-05 13:55 | 31.29810 | 122.24832 | 8001 ft | 271 kts | 25° |
| 2026-05-05 13:56 | 31.31516 | 122.25754 | 7680 ft | 267 kts | 25° |
| 2026-05-05 13:56 | 31.33218 | 122.26633 | 7343 ft | 263 kts | 20° |
| 2026-05-05 13:56 | 31.34973 | 122.27187 | 7029 ft | 260 kts | 11° |
| 2026-05-05 13:56 | 31.36739 | 122.27519 | 6712 ft | 257 kts | 8° |
| 2026-05-05 13:57 | 31.38500 | 122.27816 | 6399 ft | 256 kts | 8° |
| 2026-05-05 13:57 | 31.40267 | 122.28112 | 6079 ft | 256 kts | 9° |
| 2026-05-05 13:57 | 31.42052 | 122.28360 | 5748 ft | 257 kts | 359° |
| 2026-05-05 13:57 | 31.43732 | 122.27742 | 5410 ft | 259 kts | 322° |
| 2026-05-05 13:58 | 31.44857 | 122.26119 | 5088 ft | 257 kts | 289° |
| 2026-05-05 13:58 | 31.45127 | 122.24079 | 4762 ft | 255 kts | 267° |
| 2026-05-05 13:58 | 31.45091 | 122.22017 | 4421 ft | 257 kts | 267° |
| 2026-05-05 13:58 | 31.45062 | 122.19906 | 4071 ft | 259 kts | 267° |
| 2026-05-05 13:59 | 31.45037 | 122.15681 | 3378 ft | 262 kts | 267° |
| 2026-05-05 13:59 | 31.45032 | 122.13534 | 3029 ft | 263 kts | 267° |
| 2026-05-05 14:00 | 31.45033 | 122.09215 | 2332 ft | 265 kts | 265° |
| 2026-05-05 14:00 | 31.45034 | 122.07079 | 2026 ft | 264 kts | 265° |
| 2026-05-05 14:00 | 31.45035 | 122.04964 | 1955 ft | 253 kts | 265° |
| 2026-05-05 14:00 | 31.45036 | 122.02945 | 1950 ft | 240 kts | 264° |
| 2026-05-05 14:01 | 31.45037 | 122.01046 | 1948 ft | 228 kts | 264° |
| 2026-05-05 14:01 | 31.45035 | 121.99237 | 1943 ft | 217 kts | 264° |
| 2026-05-05 14:01 | 31.45030 | 121.97450 | 1961 ft | 218 kts | 264° |
| 2026-05-05 14:01 | 31.45024 | 121.95664 | 1958 ft | 218 kts | 264° |
| 2026-05-05 14:02 | 31.45020 | 121.93896 | 1955 ft | 218 kts | 264° |
| 2026-05-05 14:02 | 31.45016 | 121.92107 | 1951 ft | 218 kts | 264° |
| 2026-05-05 14:02 | 31.45014 | 121.90339 | 1949 ft | 219 kts | 264° |
| 2026-05-05 14:02 | 31.45012 | 121.88545 | 1950 ft | 219 kts | 264° |
| 2026-05-05 14:03 | 31.45009 | 121.86758 | 1953 ft | 219 kts | 264° |
| 2026-05-05 14:03 | 31.45006 | 121.84982 | 1952 ft | 219 kts | 264° |
| 2026-05-05 14:03 | 31.44902 | 121.83202 | 1950 ft | 216 kts | 256° |
| 2026-05-05 14:03 | 31.44621 | 121.81493 | 1951 ft | 215 kts | 252° |
| 2026-05-05 14:04 | 31.44295 | 121.79778 | 1951 ft | 215 kts | 252° |
| 2026-05-05 14:04 | 31.43965 | 121.78064 | 1948 ft | 215 kts | 252° |
| 2026-05-05 14:04 | 31.43638 | 121.76347 | 1948 ft | 216 kts | 252° |
| 2026-05-05 14:04 | 31.43312 | 121.74629 | 1943 ft | 216 kts | 252° |
| 2026-05-05 14:05 | 31.42786 | 121.73033 | 1911 ft | 203 kts | 222° |
| 2026-05-05 14:05 | 31.41639 | 121.72331 | 1914 ft | 179 kts | 182° |
| 2026-05-05 14:05 | 31.40457 | 121.72430 | 1937 ft | 166 kts | 168° |
| 2026-05-05 14:05 | 31.39337 | 121.72782 | 1959 ft | 165 kts | 163° |
| 2026-05-05 14:06 | 31.38231 | 121.73202 | 1951 ft | 166 kts | 162° |
| 2026-05-05 14:06 | 31.37166 | 121.73616 | 1933 ft | 157 kts | 162° |
| 2026-05-05 14:06 | 31.36148 | 121.74010 | 1931 ft | 147 kts | 162° |
| 2026-05-05 14:06 | 31.35205 | 121.74372 | 1927 ft | 141 kts | 162° |
| 2026-05-05 14:07 | 31.34269 | 121.74728 | 1935 ft | 140 kts | 162° |
| 2026-05-05 14:07 | 31.33328 | 121.75085 | 1941 ft | 141 kts | 162° |
| 2026-05-05 14:07 | 31.32391 | 121.75440 | 1943 ft | 141 kts | 163° |
| 2026-05-05 14:07 | 31.31463 | 121.75790 | 1942 ft | 141 kts | 163° |
| 2026-05-05 14:08 | 31.30521 | 121.76144 | 1946 ft | 141 kts | 163° |
| 2026-05-05 14:08 | 31.29589 | 121.76495 | 1948 ft | 141 kts | 163° |
| 2026-05-05 14:08 | 31.28661 | 121.76845 | 1951 ft | 140 kts | 163° |
| 2026-05-05 14:08 | 31.27724 | 121.77197 | 1949 ft | 140 kts | 163° |
| 2026-05-05 14:09 | 31.26790 | 121.77550 | 1951 ft | 140 kts | 163° |
| 2026-05-05 14:09 | 31.25849 | 121.77904 | 1952 ft | 140 kts | 163° |
| 2026-05-05 14:09 | 31.24917 | 121.78256 | 1830 ft | 141 kts | 163° |
| 2026-05-05 14:09 | 31.23983 | 121.78609 | 1645 ft | 140 kts | 163° |
| 2026-05-05 14:10 | 31.23061 | 121.78956 | 1464 ft | 139 kts | 163° |
| 2026-05-05 14:10 | 31.22137 | 121.79305 | 1282 ft | 139 kts | 163° |
| 2026-05-05 14:10 | 31.21214 | 121.79653 | 1098 ft | 138 kts | 163° |
| 2026-05-05 14:10 | 31.20299 | 121.79999 | 913 ft | 138 kts | 162° |
| 2026-05-05 14:11 | 31.19382 | 121.80344 | 733 ft | 138 kts | 162° |
| 2026-05-05 14:11 | 31.18467 | 121.80690 | 552 ft | 137 kts | 162° |
| 2026-05-05 14:11 | 31.17561 | 121.81033 | 371 ft | 137 kts | 162° |
| 2026-05-05 14:11 | 31.16653 | 121.81374 | 173 ft | 136 kts | 163° |
| 2026-05-05 14:12 | 31.15766 | 121.81704 | 29 ft | 131 kts | 162° |
| 2026-05-05 14:12 | 31.15120 | 121.81951 | 27 ft | 66 kts | 162° |
| 2026-05-05 14:12 | 31.14691 | 121.82114 | 27 ft | 61 kts | 162° |
| 2026-05-05 14:12 | 31.14401 | 121.82182 | 29 ft | 26 kts | 185° |
| 2026-05-05 14:13 | 31.14291 | 121.82162 | 30 ft | 2 kts | 190° |
| 2026-05-05 14:14 | 31.14281 | 121.82159 | 30 ft | 6 kts | 190° |
| 2026-05-05 14:14 | 31.14179 | 121.82140 | 30 ft | 21 kts | 188° |
| 2026-05-05 14:14 | 31.14031 | 121.82156 | 30 ft | 21 kts | 164° |
| 2026-05-05 14:15 | 31.13941 | 121.82189 | 30 ft | 3 kts | 162° |
| 2026-05-05 14:15 | 31.13911 | 121.82201 | 30 ft | 5 kts | 162° |
| 2026-05-05 14:15 | 31.13868 | 121.82217 | 30 ft | 7 kts | 162° |
| 2026-05-05 14:15 | 31.13812 | 121.82238 | 30 ft | 9 kts | 161° |
| 2026-05-05 14:16 | 31.13746 | 121.82262 | 30 ft | 10 kts | 166° |
| 2026-05-05 14:16 | 31.13681 | 121.82242 | 30 ft | 7 kts | 222° |
| 2026-05-05 14:16 | 31.13658 | 121.82204 | 30 ft | 0 kts | 246° |
| 2026-05-05 14:17 | 31.13654 | 121.82194 | 30 ft | 9 kts | 247° |
| 2026-05-05 14:17 | 31.13606 | 121.82033 | 30 ft | 25 kts | 251° |
| 2026-05-05 14:17 | 31.13573 | 121.81868 | 30 ft | 18 kts | 280° |
| 2026-05-05 14:17 | 31.13616 | 121.81818 | 30 ft | 2 kts | 339° |
| 2026-05-05 14:18 | 31.13617 | 121.81817 | 30 ft | 0 kts | 340° |
| 2026-05-05 14:19 | 31.13631 | 121.81812 | 30 ft | 4 kts | 341° |
| 2026-05-05 14:19 | 31.13677 | 121.81794 | 30 ft | 9 kts | 342° |
| 2026-05-05 14:19 | 31.13736 | 121.81746 | 30 ft | 12 kts | 301° |
| 2026-05-05 14:19 | 31.13736 | 121.81641 | 28 ft | 14 kts | 255° |
| 2026-05-05 14:20 | 31.13712 | 121.81529 | 28 ft | 11 kts | 269° |
| 2026-05-05 14:20 | 31.13714 | 121.81492 | 28 ft | 0 kts | 277° |
| 2026-05-05 14:20 | 31.13714 | 121.81490 | 28 ft | 1 kts | 280° |
| 2026-05-05 14:20 | 31.13727 | 121.81463 | 28 ft | 5 kts | 310° |
| 2026-05-05 14:21 | 31.13749 | 121.81442 | 29 ft | 2 kts | 308° |
| 2026-05-05 14:21 | 31.13751 | 121.81406 | 29 ft | 5 kts | 248° |
| 2026-05-05 14:21 | 31.13736 | 121.81355 | 28 ft | 0 kts | 251° |
| 2026-05-05 14:22 | 31.13734 | 121.81350 | 28 ft | 0 kts | 249° |